sensor_id;sensor_type;location;lat;lon;timestamp;temperature;humidity
11229;DHT22;5671;47.936;8.716;2023-06-19T00:02:04;17.80;61.50
11229;DHT22;5671;47.936;8.716;2023-06-19T00:04:40;17.70;62.00
11229;DHT22;5671;47.936;8.716;2023-06-19T00:07:07;17.70;61.80
11229;DHT22;5671;47.936;8.716;2023-06-19T00:09:34;17.70;60.80
11229;DHT22;5671;47.936;8.716;2023-06-19T00:12:01;17.70;60.40
11229;DHT22;5671;47.936;8.716;2023-06-19T00:14:49;17.70;60.40
11229;DHT22;5671;47.936;8.716;2023-06-19T00:17:18;17.60;60.60
11229;DHT22;5671;47.936;8.716;2023-06-19T00:19:45;17.60;60.70
11229;DHT22;5671;47.936;8.716;2023-06-19T00:22:14;17.60;62.50
11229;DHT22;5671;47.936;8.716;2023-06-19T00:24:41;17.50;60.50
11229;DHT22;5671;47.936;8.716;2023-06-19T00:27:07;17.50;63.40
11229;DHT22;5671;47.936;8.716;2023-06-19T00:29:34;17.40;63.40
11229;DHT22;5671;47.936;8.716;2023-06-19T00:32:03;17.40;63.80
11229;DHT22;5671;47.936;8.716;2023-06-19T00:34:30;17.30;63.30
11229;DHT22;5671;47.936;8.716;2023-06-19T00:36:58;17.30;64.00
11229;DHT22;5671;47.936;8.716;2023-06-19T00:39:25;17.20;64.70
11229;DHT22;5671;47.936;8.716;2023-06-19T00:41:55;17.10;64.60
11229;DHT22;5671;47.936;8.716;2023-06-19T00:44:22;17.10;65.20
11229;DHT22;5671;47.936;8.716;2023-06-19T00:46:51;17.10;64.70
11229;DHT22;5671;47.936;8.716;2023-06-19T00:49:23;17.00;64.90
11229;DHT22;5671;47.936;8.716;2023-06-19T00:51:51;17.00;64.70
11229;DHT22;5671;47.936;8.716;2023-06-19T00:54:19;17.00;65.90
11229;DHT22;5671;47.936;8.716;2023-06-19T00:56:45;16.90;65.90
11229;DHT22;5671;47.936;8.716;2023-06-19T00:59:15;16.90;65.00
11229;DHT22;5671;47.936;8.716;2023-06-19T01:01:43;16.90;65.50
11229;DHT22;5671;47.936;8.716;2023-06-19T01:04:10;16.90;66.10
11229;DHT22;5671;47.936;8.716;2023-06-19T01:06:43;16.90;66.00
11229;DHT22;5671;47.936;8.716;2023-06-19T01:09:15;16.90;66.00
11229;DHT22;5671;47.936;8.716;2023-06-19T01:11:45;16.90;66.20
11229;DHT22;5671;47.936;8.716;2023-06-19T01:14:15;16.90;66.40
11229;DHT22;5671;47.936;8.716;2023-06-19T01:16:45;16.90;66.40
11229;DHT22;5671;47.936;8.716;2023-06-19T01:19:17;16.90;67.00
11229;DHT22;5671;47.936;8.716;2023-06-19T01:21:46;16.90;67.70
11229;DHT22;5671;47.936;8.716;2023-06-19T01:24:15;16.80;67.20
11229;DHT22;5671;47.936;8.716;2023-06-19T01:26:42;16.90;66.90
11229;DHT22;5671;47.936;8.716;2023-06-19T01:29:11;16.90;68.60
11229;DHT22;5671;47.936;8.716;2023-06-19T01:31:48;17.00;68.70
11229;DHT22;5671;47.936;8.716;2023-06-19T01:34:19;17.10;70.40
11229;DHT22;5671;47.936;8.716;2023-06-19T01:36:47;17.10;70.80
11229;DHT22;5671;47.936;8.716;2023-06-19T01:39:18;17.20;69.90
11229;DHT22;5671;47.936;8.716;2023-06-19T01:41:45;17.40;67.30
11229;DHT22;5671;47.936;8.716;2023-06-19T01:44:13;17.50;70.80
11229;DHT22;5671;47.936;8.716;2023-06-19T01:46:40;17.40;71.40
11229;DHT22;5671;47.936;8.716;2023-06-19T01:49:07;17.40;71.50
11229;DHT22;5671;47.936;8.716;2023-06-19T01:51:35;17.40;70.40
11229;DHT22;5671;47.936;8.716;2023-06-19T01:54:02;17.40;70.10
11229;DHT22;5671;47.936;8.716;2023-06-19T01:56:31;17.40;69.70
11229;DHT22;5671;47.936;8.716;2023-06-19T01:58:58;17.40;71.20
11229;DHT22;5671;47.936;8.716;2023-06-19T02:01:25;17.40;70.40
11229;DHT22;5671;47.936;8.716;2023-06-19T02:03:51;17.40;68.80
11229;DHT22;5671;47.936;8.716;2023-06-19T02:06:18;17.40;69.60
11229;DHT22;5671;47.936;8.716;2023-06-19T02:08:46;17.40;68.00
11229;DHT22;5671;47.936;8.716;2023-06-19T02:11:13;17.40;70.00
11229;DHT22;5671;47.936;8.716;2023-06-19T02:13:42;17.40;68.00
11229;DHT22;5671;47.936;8.716;2023-06-19T02:16:09;17.40;68.40
11229;DHT22;5671;47.936;8.716;2023-06-19T02:18:35;17.40;68.80
11229;DHT22;5671;47.936;8.716;2023-06-19T02:21:02;17.50;68.20
11229;DHT22;5671;47.936;8.716;2023-06-19T02:23:29;17.50;69.30
11229;DHT22;5671;47.936;8.716;2023-06-19T02:25:56;17.50;68.10
11229;DHT22;5671;47.936;8.716;2023-06-19T02:28:23;17.50;68.10
11229;DHT22;5671;47.936;8.716;2023-06-19T02:30:52;17.50;68.30
11229;DHT22;5671;47.936;8.716;2023-06-19T02:33:18;17.60;67.60
11229;DHT22;5671;47.936;8.716;2023-06-19T02:35:45;17.60;67.50
11229;DHT22;5671;47.936;8.716;2023-06-19T02:38:12;17.60;66.30
11229;DHT22;5671;47.936;8.716;2023-06-19T02:40:40;17.70;67.50
11229;DHT22;5671;47.936;8.716;2023-06-19T02:43:07;17.60;66.90
11229;DHT22;5671;47.936;8.716;2023-06-19T02:45:33;17.60;66.90
11229;DHT22;5671;47.936;8.716;2023-06-19T02:48:02;17.70;66.80
11229;DHT22;5671;47.936;8.716;2023-06-19T02:50:28;17.60;66.30
11229;DHT22;5671;47.936;8.716;2023-06-19T02:52:55;17.60;66.40
11229;DHT22;5671;47.936;8.716;2023-06-19T02:55:22;17.60;67.20
11229;DHT22;5671;47.936;8.716;2023-06-19T02:57:49;17.60;66.40
11229;DHT22;5671;47.936;8.716;2023-06-19T03:00:15;17.60;66.10
11229;DHT22;5671;47.936;8.716;2023-06-19T03:02:42;17.60;66.50
11229;DHT22;5671;47.936;8.716;2023-06-19T03:05:12;17.60;66.30
11229;DHT22;5671;47.936;8.716;2023-06-19T03:07:41;17.60;67.30
11229;DHT22;5671;47.936;8.716;2023-06-19T03:10:08;17.60;66.50
11229;DHT22;5671;47.936;8.716;2023-06-19T03:12:35;17.60;65.20
11229;DHT22;5671;47.936;8.716;2023-06-19T03:15:02;17.50;66.50
11229;DHT22;5671;47.936;8.716;2023-06-19T03:17:29;17.50;65.40
11229;DHT22;5671;47.936;8.716;2023-06-19T03:19:56;17.50;65.20
11229;DHT22;5671;47.936;8.716;2023-06-19T03:22:24;17.50;66.70
11229;DHT22;5671;47.936;8.716;2023-06-19T03:24:50;17.50;66.00
11229;DHT22;5671;47.936;8.716;2023-06-19T03:27:17;17.40;69.20
11229;DHT22;5671;47.936;8.716;2023-06-19T03:29:44;17.40;69.20
11229;DHT22;5671;47.936;8.716;2023-06-19T03:32:11;17.40;69.40
11229;DHT22;5671;47.936;8.716;2023-06-19T03:34:38;17.40;69.20
11229;DHT22;5671;47.936;8.716;2023-06-19T03:37:05;17.40;68.50
11229;DHT22;5671;47.936;8.716;2023-06-19T03:39:33;17.30;69.90
11229;DHT22;5671;47.936;8.716;2023-06-19T03:42:00;17.30;69.30
11229;DHT22;5671;47.936;8.716;2023-06-19T03:44:27;17.30;68.40
11229;DHT22;5671;47.936;8.716;2023-06-19T03:46:53;17.20;70.10
11229;DHT22;5671;47.936;8.716;2023-06-19T03:49:20;17.20;71.20
11229;DHT22;5671;47.936;8.716;2023-06-19T03:51:47;17.10;72.10
11229;DHT22;5671;47.936;8.716;2023-06-19T03:54:14;17.10;69.60
11229;DHT22;5671;47.936;8.716;2023-06-19T03:56:42;17.10;70.40
11229;DHT22;5671;47.936;8.716;2023-06-19T03:59:09;17.10;70.20
11229;DHT22;5671;47.936;8.716;2023-06-19T04:01:35;17.10;70.30
11229;DHT22;5671;47.936;8.716;2023-06-19T04:04:02;17.10;68.90
11229;DHT22;5671;47.936;8.716;2023-06-19T04:06:29;17.10;70.60
11229;DHT22;5671;47.936;8.716;2023-06-19T04:08:56;17.10;70.40
11229;DHT22;5671;47.936;8.716;2023-06-19T04:11:23;17.10;70.30
11229;DHT22;5671;47.936;8.716;2023-06-19T04:13:51;17.10;70.50
11229;DHT22;5671;47.936;8.716;2023-06-19T04:16:18;17.10;71.00
11229;DHT22;5671;47.936;8.716;2023-06-19T04:18:44;17.10;71.60
11229;DHT22;5671;47.936;8.716;2023-06-19T04:21:11;17.00;70.90
11229;DHT22;5671;47.936;8.716;2023-06-19T04:23:38;17.00;71.80
11229;DHT22;5671;47.936;8.716;2023-06-19T04:26:05;17.00;71.80
11229;DHT22;5671;47.936;8.716;2023-06-19T04:28:32;17.00;72.80
11229;DHT22;5671;47.936;8.716;2023-06-19T04:31:00;17.00;71.60
11229;DHT22;5671;47.936;8.716;2023-06-19T04:33:27;17.00;71.60
11229;DHT22;5671;47.936;8.716;2023-06-19T04:35:53;17.00;72.30
11229;DHT22;5671;47.936;8.716;2023-06-19T04:38:20;17.00;72.00
11229;DHT22;5671;47.936;8.716;2023-06-19T04:40:49;17.00;72.40
11229;DHT22;5671;47.936;8.716;2023-06-19T04:43:16;17.00;72.80
11229;DHT22;5671;47.936;8.716;2023-06-19T04:45:43;17.00;73.60
11229;DHT22;5671;47.936;8.716;2023-06-19T04:48:11;17.00;73.40
11229;DHT22;5671;47.936;8.716;2023-06-19T04:50:38;17.00;73.50
11229;DHT22;5671;47.936;8.716;2023-06-19T04:53:04;17.00;74.10
11229;DHT22;5671;47.936;8.716;2023-06-19T04:55:32;17.00;73.60
11229;DHT22;5671;47.936;8.716;2023-06-19T04:57:58;17.10;71.40
11229;DHT22;5671;47.936;8.716;2023-06-19T05:00:25;17.10;72.60
11229;DHT22;5671;47.936;8.716;2023-06-19T05:02:54;17.10;71.10
11229;DHT22;5671;47.936;8.716;2023-06-19T05:05:26;17.10;72.20
11229;DHT22;5671;47.936;8.716;2023-06-19T05:07:53;17.10;73.10
11229;DHT22;5671;47.936;8.716;2023-06-19T05:10:20;17.10;74.30
11229;DHT22;5671;47.936;8.716;2023-06-19T05:12:47;17.20;72.50
11229;DHT22;5671;47.936;8.716;2023-06-19T05:15:14;17.20;72.30
11229;DHT22;5671;47.936;8.716;2023-06-19T05:17:40;17.20;72.30
11229;DHT22;5671;47.936;8.716;2023-06-19T05:20:08;17.20;71.70
11229;DHT22;5671;47.936;8.716;2023-06-19T05:22:38;17.20;72.10
11229;DHT22;5671;47.936;8.716;2023-06-19T05:25:06;17.20;72.40
11229;DHT22;5671;47.936;8.716;2023-06-19T05:27:33;17.20;73.80
11229;DHT22;5671;47.936;8.716;2023-06-19T05:29:59;17.20;72.30
11229;DHT22;5671;47.936;8.716;2023-06-19T05:32:26;17.20;72.40
11229;DHT22;5671;47.936;8.716;2023-06-19T05:34:53;17.20;73.10
11229;DHT22;5671;47.936;8.716;2023-06-19T05:37:20;17.30;71.70
11229;DHT22;5671;47.936;8.716;2023-06-19T05:39:48;17.30;73.00
11229;DHT22;5671;47.936;8.716;2023-06-19T05:42:15;17.30;72.30
11229;DHT22;5671;47.936;8.716;2023-06-19T05:44:42;17.40;71.30
11229;DHT22;5671;47.936;8.716;2023-06-19T05:47:09;17.40;71.80
11229;DHT22;5671;47.936;8.716;2023-06-19T05:49:37;17.40;70.90
11229;DHT22;5671;47.936;8.716;2023-06-19T05:52:07;17.40;72.70
11229;DHT22;5671;47.936;8.716;2023-06-19T05:54:34;17.50;74.00
11229;DHT22;5671;47.936;8.716;2023-06-19T05:57:03;17.50;72.70
11229;DHT22;5671;47.936;8.716;2023-06-19T05:59:29;17.60;72.60
11229;DHT22;5671;47.936;8.716;2023-06-19T06:01:56;17.60;73.50
11229;DHT22;5671;47.936;8.716;2023-06-19T06:04:23;17.70;73.20
11229;DHT22;5671;47.936;8.716;2023-06-19T06:06:50;17.80;73.10
11229;DHT22;5671;47.936;8.716;2023-06-19T06:09:16;17.90;72.40
11229;DHT22;5671;47.936;8.716;2023-06-19T06:11:43;18.00;74.10
11229;DHT22;5671;47.936;8.716;2023-06-19T06:14:11;18.10;74.90
11229;DHT22;5671;47.936;8.716;2023-06-19T06:16:38;18.10;72.40
11229;DHT22;5671;47.936;8.716;2023-06-19T06:19:05;18.20;71.40
11229;DHT22;5671;47.936;8.716;2023-06-19T06:21:32;18.30;72.00
11229;DHT22;5671;47.936;8.716;2023-06-19T06:24:00;18.30;73.00
11229;DHT22;5671;47.936;8.716;2023-06-19T06:26:27;18.40;72.90
11229;DHT22;5671;47.936;8.716;2023-06-19T06:28:54;18.50;71.20
11229;DHT22;5671;47.936;8.716;2023-06-19T06:31:23;18.50;72.10
11229;DHT22;5671;47.936;8.716;2023-06-19T06:33:50;18.60;72.00
11229;DHT22;5671;47.936;8.716;2023-06-19T06:36:17;18.60;70.70
11229;DHT22;5671;47.936;8.716;2023-06-19T06:38:44;18.70;71.60
11229;DHT22;5671;47.936;8.716;2023-06-19T06:41:10;18.70;71.50
11229;DHT22;5671;47.936;8.716;2023-06-19T06:43:40;18.80;72.00
11229;DHT22;5671;47.936;8.716;2023-06-19T06:46:08;18.80;72.10
11229;DHT22;5671;47.936;8.716;2023-06-19T06:48:37;18.80;71.80
11229;DHT22;5671;47.936;8.716;2023-06-19T06:51:03;18.70;72.10
11229;DHT22;5671;47.936;8.716;2023-06-19T06:53:30;18.70;72.30
11229;DHT22;5671;47.936;8.716;2023-06-19T06:55:58;18.80;72.40
11229;DHT22;5671;47.936;8.716;2023-06-19T06:58:26;18.70;72.10
11229;DHT22;5671;47.936;8.716;2023-06-19T07:00:52;18.80;71.50
11229;DHT22;5671;47.936;8.716;2023-06-19T07:03:19;18.80;71.60
11229;DHT22;5671;47.936;8.716;2023-06-19T07:05:48;18.80;70.80
11229;DHT22;5671;47.936;8.716;2023-06-19T07:08:15;18.80;72.10
11229;DHT22;5671;47.936;8.716;2023-06-19T07:10:42;18.90;71.60
11229;DHT22;5671;47.936;8.716;2023-06-19T07:13:09;19.00;71.80
11229;DHT22;5671;47.936;8.716;2023-06-19T07:15:35;19.10;71.00
11229;DHT22;5671;47.936;8.716;2023-06-19T07:18:02;19.20;71.00
11229;DHT22;5671;47.936;8.716;2023-06-19T07:20:29;19.30;71.20
11229;DHT22;5671;47.936;8.716;2023-06-19T07:22:57;19.40;70.40
11229;DHT22;5671;47.936;8.716;2023-06-19T07:25:25;19.50;70.70
11229;DHT22;5671;47.936;8.716;2023-06-19T07:27:52;19.50;69.00
11229;DHT22;5671;47.936;8.716;2023-06-19T07:30:19;19.50;67.90
11229;DHT22;5671;47.936;8.716;2023-06-19T07:32:46;19.50;67.90
11229;DHT22;5671;47.936;8.716;2023-06-19T07:35:13;19.50;67.20
11229;DHT22;5671;47.936;8.716;2023-06-19T07:37:42;19.60;67.50
11229;DHT22;5671;47.936;8.716;2023-06-19T07:40:11;19.70;67.50
11229;DHT22;5671;47.936;8.716;2023-06-19T07:42:38;19.90;67.10
11229;DHT22;5671;47.936;8.716;2023-06-19T07:45:06;20.00;68.40
11229;DHT22;5671;47.936;8.716;2023-06-19T07:47:33;20.00;66.90
11229;DHT22;5671;47.936;8.716;2023-06-19T07:50:00;20.00;66.20
11229;DHT22;5671;47.936;8.716;2023-06-19T07:52:26;20.00;66.40
11229;DHT22;5671;47.936;8.716;2023-06-19T07:54:54;20.00;66.60
11229;DHT22;5671;47.936;8.716;2023-06-19T07:57:24;20.00;66.00
11229;DHT22;5671;47.936;8.716;2023-06-19T07:59:52;20.10;65.90
11229;DHT22;5671;47.936;8.716;2023-06-19T08:02:19;20.20;65.40
11229;DHT22;5671;47.936;8.716;2023-06-19T08:04:46;20.30;65.50
11229;DHT22;5671;47.936;8.716;2023-06-19T08:07:13;20.50;65.40
11229;DHT22;5671;47.936;8.716;2023-06-19T08:09:40;20.60;64.90
11229;DHT22;5671;47.936;8.716;2023-06-19T08:12:07;20.80;65.40
11229;DHT22;5671;47.936;8.716;2023-06-19T08:14:36;20.90;64.20
11229;DHT22;5671;47.936;8.716;2023-06-19T08:17:04;21.00;63.30
11229;DHT22;5671;47.936;8.716;2023-06-19T08:19:31;21.00;62.90
11229;DHT22;5671;47.936;8.716;2023-06-19T08:21:57;21.10;62.80
11229;DHT22;5671;47.936;8.716;2023-06-19T08:24:24;21.20;61.60
11229;DHT22;5671;47.936;8.716;2023-06-19T08:26:51;21.30;61.90
11229;DHT22;5671;47.936;8.716;2023-06-19T08:29:18;21.40;61.40
11229;DHT22;5671;47.936;8.716;2023-06-19T08:31:46;21.60;61.80
11229;DHT22;5671;47.936;8.716;2023-06-19T08:34:13;21.70;60.80
11229;DHT22;5671;47.936;8.716;2023-06-19T08:36:40;21.70;59.60
11229;DHT22;5671;47.936;8.716;2023-06-19T08:39:06;21.80;58.60
11229;DHT22;5671;47.936;8.716;2023-06-19T08:41:34;21.90;60.30
11229;DHT22;5671;47.936;8.716;2023-06-19T08:44:01;22.00;59.20
11229;DHT22;5671;47.936;8.716;2023-06-19T08:46:28;22.20;59.30
11229;DHT22;5671;47.936;8.716;2023-06-19T08:48:57;22.20;58.90
11229;DHT22;5671;47.936;8.716;2023-06-19T08:51:26;22.40;59.10
11229;DHT22;5671;47.936;8.716;2023-06-19T08:53:56;22.50;57.90
11229;DHT22;5671;47.936;8.716;2023-06-19T08:56:23;22.60;56.80
11229;DHT22;5671;47.936;8.716;2023-06-19T08:58:50;22.70;57.00
11229;DHT22;5671;47.936;8.716;2023-06-19T09:01:17;22.70;56.30
11229;DHT22;5671;47.936;8.716;2023-06-19T09:03:44;22.70;55.90
11229;DHT22;5671;47.936;8.716;2023-06-19T09:06:15;22.80;55.30
11229;DHT22;5671;47.936;8.716;2023-06-19T09:08:42;22.80;55.90
11229;DHT22;5671;47.936;8.716;2023-06-19T09:11:11;22.90;55.40
11229;DHT22;5671;47.936;8.716;2023-06-19T09:13:38;23.00;55.70
11229;DHT22;5671;47.936;8.716;2023-06-19T09:16:06;23.10;54.70
11229;DHT22;5671;47.936;8.716;2023-06-19T09:18:42;23.10;53.90
11229;DHT22;5671;47.936;8.716;2023-06-19T09:21:17;23.20;54.70
11229;DHT22;5671;47.936;8.716;2023-06-19T09:23:44;23.40;54.20
11229;DHT22;5671;47.936;8.716;2023-06-19T09:26:14;23.50;53.60
11229;DHT22;5671;47.936;8.716;2023-06-19T09:28:41;23.50;53.30
11229;DHT22;5671;47.936;8.716;2023-06-19T09:31:08;23.70;54.90
11229;DHT22;5671;47.936;8.716;2023-06-19T09:33:36;23.80;54.40
11229;DHT22;5671;47.936;8.716;2023-06-19T09:36:04;23.90;53.30
11229;DHT22;5671;47.936;8.716;2023-06-19T09:38:35;24.00;53.30
11229;DHT22;5671;47.936;8.716;2023-06-19T09:41:04;24.10;52.90
11229;DHT22;5671;47.936;8.716;2023-06-19T09:43:35;24.20;52.50
11229;DHT22;5671;47.936;8.716;2023-06-19T09:46:04;24.30;52.60
11229;DHT22;5671;47.936;8.716;2023-06-19T09:48:33;24.40;51.90
11229;DHT22;5671;47.936;8.716;2023-06-19T09:51:06;24.50;52.20
11229;DHT22;5671;47.936;8.716;2023-06-19T09:53:36;24.60;52.20
11229;DHT22;5671;47.936;8.716;2023-06-19T09:56:03;24.70;51.00
11229;DHT22;5671;47.936;8.716;2023-06-19T09:58:31;24.70;50.10
11229;DHT22;5671;47.936;8.716;2023-06-19T10:00:58;24.70;51.40
11229;DHT22;5671;47.936;8.716;2023-06-19T10:03:30;24.80;51.20
11229;DHT22;5671;47.936;8.716;2023-06-19T10:05:58;24.90;50.50
11229;DHT22;5671;47.936;8.716;2023-06-19T10:08:28;25.00;50.20
11229;DHT22;5671;47.936;8.716;2023-06-19T10:10:57;25.10;49.70
11229;DHT22;5671;47.936;8.716;2023-06-19T10:13:31;25.20;49.70
11229;DHT22;5671;47.936;8.716;2023-06-19T10:15:59;25.30;49.20
11229;DHT22;5671;47.936;8.716;2023-06-19T10:18:26;25.40;49.80
11229;DHT22;5671;47.936;8.716;2023-06-19T10:20:54;25.50;48.90
11229;DHT22;5671;47.936;8.716;2023-06-19T10:23:23;25.50;48.30
11229;DHT22;5671;47.936;8.716;2023-06-19T10:25:57;25.60;48.10
11229;DHT22;5671;47.936;8.716;2023-06-19T10:28:26;25.70;48.70
11229;DHT22;5671;47.936;8.716;2023-06-19T10:30:54;25.80;47.30
11229;DHT22;5671;47.936;8.716;2023-06-19T10:33:23;25.90;49.20
11229;DHT22;5671;47.936;8.716;2023-06-19T10:35:50;26.00;47.60
11229;DHT22;5671;47.936;8.716;2023-06-19T10:38:18;26.20;47.20
11229;DHT22;5671;47.936;8.716;2023-06-19T10:40:45;26.20;47.20
11229;DHT22;5671;47.936;8.716;2023-06-19T10:43:19;26.30;46.70
11229;DHT22;5671;47.936;8.716;2023-06-19T10:45:47;26.40;47.10
11229;DHT22;5671;47.936;8.716;2023-06-19T10:48:19;26.40;47.10
11229;DHT22;5671;47.936;8.716;2023-06-19T10:50:49;26.50;46.80
11229;DHT22;5671;47.936;8.716;2023-06-19T10:53:26;26.70;46.50
11229;DHT22;5671;47.936;8.716;2023-06-19T10:55:56;26.80;47.00
11229;DHT22;5671;47.936;8.716;2023-06-19T10:58:24;26.90;45.30
11229;DHT22;5671;47.936;8.716;2023-06-19T11:00:51;27.00;46.50
11229;DHT22;5671;47.936;8.716;2023-06-19T11:03:21;27.20;45.40
11229;DHT22;5671;47.936;8.716;2023-06-19T11:05:48;27.20;45.10
11229;DHT22;5671;47.936;8.716;2023-06-19T11:08:19;27.20;46.70
11229;DHT22;5671;47.936;8.716;2023-06-19T11:10:46;27.10;44.10
11229;DHT22;5671;47.936;8.716;2023-06-19T11:13:14;26.90;44.80
11229;DHT22;5671;47.936;8.716;2023-06-19T11:15:43;26.70;46.10
11229;DHT22;5671;47.936;8.716;2023-06-19T11:18:15;26.90;46.60
11229;DHT22;5671;47.936;8.716;2023-06-19T11:20:46;27.20;45.90
11229;DHT22;5671;47.936;8.716;2023-06-19T11:23:14;27.50;45.70
11229;DHT22;5671;47.936;8.716;2023-06-19T11:25:41;27.60;44.60
11229;DHT22;5671;47.936;8.716;2023-06-19T11:28:12;27.90;44.80
11229;DHT22;5671;47.936;8.716;2023-06-19T11:30:40;27.80;45.10
11229;DHT22;5671;47.936;8.716;2023-06-19T11:33:20;27.80;44.40
11229;DHT22;5671;47.936;8.716;2023-06-19T11:35:49;27.90;44.80
11229;DHT22;5671;47.936;8.716;2023-06-19T11:38:19;28.00;44.80
11229;DHT22;5671;47.936;8.716;2023-06-19T11:40:47;28.10;44.10
11229;DHT22;5671;47.936;8.716;2023-06-19T11:43:23;28.20;44.30
11229;DHT22;5671;47.936;8.716;2023-06-19T11:45:51;28.40;43.80
11229;DHT22;5671;47.936;8.716;2023-06-19T11:48:25;28.50;43.30
11229;DHT22;5671;47.936;8.716;2023-06-19T11:50:52;28.50;42.80
11229;DHT22;5671;47.936;8.716;2023-06-19T11:53:19;28.50;42.30
11229;DHT22;5671;47.936;8.716;2023-06-19T11:55:46;28.60;41.10
11229;DHT22;5671;47.936;8.716;2023-06-19T11:58:13;28.70;41.10
11229;DHT22;5671;47.936;8.716;2023-06-19T12:00:41;28.80;41.60
11229;DHT22;5671;47.936;8.716;2023-06-19T12:03:08;28.90;41.70
11229;DHT22;5671;47.936;8.716;2023-06-19T12:05:37;28.90;41.20
11229;DHT22;5671;47.936;8.716;2023-06-19T12:08:04;28.80;40.30
11229;DHT22;5671;47.936;8.716;2023-06-19T12:10:32;28.70;41.00
11229;DHT22;5671;47.936;8.716;2023-06-19T12:12:59;28.90;41.40
11229;DHT22;5671;47.936;8.716;2023-06-19T12:15:26;28.70;40.70
11229;DHT22;5671;47.936;8.716;2023-06-19T12:17:53;28.60;40.60
11229;DHT22;5671;47.936;8.716;2023-06-19T12:20:23;28.60;40.70
11229;DHT22;5671;47.936;8.716;2023-06-19T12:22:53;28.60;40.80
11229;DHT22;5671;47.936;8.716;2023-06-19T12:25:20;28.80;41.80
11229;DHT22;5671;47.936;8.716;2023-06-19T12:27:46;29.00;40.60
11229;DHT22;5671;47.936;8.716;2023-06-19T12:30:15;29.10;41.00
11229;DHT22;5671;47.936;8.716;2023-06-19T12:32:42;29.00;40.60
11229;DHT22;5671;47.936;8.716;2023-06-19T12:35:09;29.10;39.50
11229;DHT22;5671;47.936;8.716;2023-06-19T12:37:36;29.20;40.30
11229;DHT22;5671;47.936;8.716;2023-06-19T12:40:05;29.10;40.00
11229;DHT22;5671;47.936;8.716;2023-06-19T12:42:33;29.20;40.70
11229;DHT22;5671;47.936;8.716;2023-06-19T12:45:01;29.40;40.10
11229;DHT22;5671;47.936;8.716;2023-06-19T12:47:28;29.50;39.90
11229;DHT22;5671;47.936;8.716;2023-06-19T12:49:55;29.60;39.60
11229;DHT22;5671;47.936;8.716;2023-06-19T12:52:22;29.90;39.10
11229;DHT22;5671;47.936;8.716;2023-06-19T12:54:50;29.90;38.20
11229;DHT22;5671;47.936;8.716;2023-06-19T12:57:18;30.00;39.40
11229;DHT22;5671;47.936;8.716;2023-06-19T12:59:45;30.10;39.60
11229;DHT22;5671;47.936;8.716;2023-06-19T13:02:12;30.10;38.90
11229;DHT22;5671;47.936;8.716;2023-06-19T13:04:39;30.20;39.30
11229;DHT22;5671;47.936;8.716;2023-06-19T13:07:06;30.40;38.90
11229;DHT22;5671;47.936;8.716;2023-06-19T13:09:33;30.30;37.50
11229;DHT22;5671;47.936;8.716;2023-06-19T13:12:01;30.10;37.80
11229;DHT22;5671;47.936;8.716;2023-06-19T13:14:29;30.10;38.80
11229;DHT22;5671;47.936;8.716;2023-06-19T13:16:57;30.10;38.40
11229;DHT22;5671;47.936;8.716;2023-06-19T13:19:24;29.90;39.80
11229;DHT22;5671;47.936;8.716;2023-06-19T13:21:51;29.90;38.10
11229;DHT22;5671;47.936;8.716;2023-06-19T13:24:18;29.90;38.90
11229;DHT22;5671;47.936;8.716;2023-06-19T13:26:45;29.70;38.50
11229;DHT22;5671;47.936;8.716;2023-06-19T13:29:12;29.70;38.00
11229;DHT22;5671;47.936;8.716;2023-06-19T13:31:40;29.70;39.40
11229;DHT22;5671;47.936;8.716;2023-06-19T13:34:07;29.50;38.00
11229;DHT22;5671;47.936;8.716;2023-06-19T13:36:34;29.60;37.50
11229;DHT22;5671;47.936;8.716;2023-06-19T13:39:01;29.80;37.90
11229;DHT22;5671;47.936;8.716;2023-06-19T13:41:30;29.80;39.10
11229;DHT22;5671;47.936;8.716;2023-06-19T13:43:58;29.80;38.60
11229;DHT22;5671;47.936;8.716;2023-06-19T13:46:25;29.80;38.00
11229;DHT22;5671;47.936;8.716;2023-06-19T13:48:53;29.90;39.40
11229;DHT22;5671;47.936;8.716;2023-06-19T13:51:20;30.00;37.80
11229;DHT22;5671;47.936;8.716;2023-06-19T13:53:48;29.80;38.00
11229;DHT22;5671;47.936;8.716;2023-06-19T13:56:15;29.50;38.50
11229;DHT22;5671;47.936;8.716;2023-06-19T13:58:42;29.20;39.00
11229;DHT22;5671;47.936;8.716;2023-06-19T14:01:09;29.00;39.40
11229;DHT22;5671;47.936;8.716;2023-06-19T14:03:37;28.80;39.40
11229;DHT22;5671;47.936;8.716;2023-06-19T14:06:06;28.70;39.70
11229;DHT22;5671;47.936;8.716;2023-06-19T14:08:33;28.60;40.10
11229;DHT22;5671;47.936;8.716;2023-06-19T14:10:59;28.50;39.80
11229;DHT22;5671;47.936;8.716;2023-06-19T14:13:26;28.40;41.30
11229;DHT22;5671;47.936;8.716;2023-06-19T14:15:53;28.30;40.90
11229;DHT22;5671;47.936;8.716;2023-06-19T14:18:20;28.20;41.60
11229;DHT22;5671;47.936;8.716;2023-06-19T14:20:47;28.10;41.50
11229;DHT22;5671;47.936;8.716;2023-06-19T14:23:15;28.00;41.20
11229;DHT22;5671;47.936;8.716;2023-06-19T14:25:42;28.00;42.10
11229;DHT22;5671;47.936;8.716;2023-06-19T14:28:09;27.90;42.10
11229;DHT22;5671;47.936;8.716;2023-06-19T14:30:36;27.70;41.80
11229;DHT22;5671;47.936;8.716;2023-06-19T14:33:03;27.70;42.10
11229;DHT22;5671;47.936;8.716;2023-06-19T14:35:30;27.70;42.60
11229;DHT22;5671;47.936;8.716;2023-06-19T14:37:59;27.60;42.40
11229;DHT22;5671;47.936;8.716;2023-06-19T14:40:28;27.50;41.90
11229;DHT22;5671;47.936;8.716;2023-06-19T14:42:55;27.40;42.40
11229;DHT22;5671;47.936;8.716;2023-06-19T14:45:22;27.40;42.00
11229;DHT22;5671;47.936;8.716;2023-06-19T14:47:49;27.40;42.00
11229;DHT22;5671;47.936;8.716;2023-06-19T14:50:16;27.30;42.20
11229;DHT22;5671;47.936;8.716;2023-06-19T14:52:43;27.30;42.70
11229;DHT22;5671;47.936;8.716;2023-06-19T14:55:10;27.20;42.90
11229;DHT22;5671;47.936;8.716;2023-06-19T14:57:38;27.20;42.20
11229;DHT22;5671;47.936;8.716;2023-06-19T15:00:06;27.20;42.10
11229;DHT22;5671;47.936;8.716;2023-06-19T15:02:34;27.20;42.00
11229;DHT22;5671;47.936;8.716;2023-06-19T15:05:01;27.20;42.30
11229;DHT22;5671;47.936;8.716;2023-06-19T15:07:28;27.10;42.10
11229;DHT22;5671;47.936;8.716;2023-06-19T15:09:54;27.10;42.60
11229;DHT22;5671;47.936;8.716;2023-06-19T15:12:21;27.10;42.20
11229;DHT22;5671;47.936;8.716;2023-06-19T15:14:49;27.20;42.40
11229;DHT22;5671;47.936;8.716;2023-06-19T15:17:17;27.20;42.20
11229;DHT22;5671;47.936;8.716;2023-06-19T15:19:44;27.20;41.70
11229;DHT22;5671;47.936;8.716;2023-06-19T15:22:11;27.30;42.30
11229;DHT22;5671;47.936;8.716;2023-06-19T15:24:37;27.40;42.50
11229;DHT22;5671;47.936;8.716;2023-06-19T15:27:04;27.70;44.00
11229;DHT22;5671;47.936;8.716;2023-06-19T15:29:31;27.90;40.80
11229;DHT22;5671;47.936;8.716;2023-06-19T15:32:18;28.20;40.30
11229;DHT22;5671;47.936;8.716;2023-06-19T15:34:45;28.40;39.80
11229;DHT22;5671;47.936;8.716;2023-06-19T15:37:12;28.40;39.60
11229;DHT22;5671;47.936;8.716;2023-06-19T15:39:39;28.30;39.30
11229;DHT22;5671;47.936;8.716;2023-06-19T15:42:06;28.30;40.30
11229;DHT22;5671;47.936;8.716;2023-06-19T15:44:33;28.20;39.30
11229;DHT22;5671;47.936;8.716;2023-06-19T15:47:00;28.00;39.50
11229;DHT22;5671;47.936;8.716;2023-06-19T15:49:28;27.90;39.80